Sykesville, MD (21784)

5:44 PM EST on February 07, 2016 (GMT -0500)
Lee's House | | Change Station
CLOSE
Current Station
Personal Weather Station
Location: Sykesville, MD
Elevation: 500 ft
Nearby Weather Stations

Elev 500 ft 39.36 °N, 76.99 °W | Updated 176 days ago

Partly Cloudy
Partly Cloudy
35 °F
Feels Like 32 °F
N
4
Wind Variable Wind from NNE
Gusts mph

Today
High -- | Low -- °F
--% Chance of Precip.
Yesterday
High -- | Low -- °F
Precip. -- in
Pressure 29.96 in
Visibility 10.0 miles
Clouds Clear
Windchill 32 °F
Dew Point 24 °F
Humidity 62%
Rainfall in
Snow Depth Not available.
7:09 AM 5:34 PM
Waning Crescent, 1% visible
METAR KDMW 072225Z AUTO 05004KT 10SM CLR 05/M02 A2996 RMK AO2
Pressure 29.96 in
Visibility 10.0 miles
Clouds Clear
Windchill 32 °F
Dew Point 24 °F
Humidity 62%
Rainfall in
Snow Depth Not available.
7:09 AM 5:34 PM
Waning Crescent, 1% visible
METAR KDMW 072225Z AUTO 05004KT 10SM CLR 05/M02 A2996 RMK AO2

10-Day Weather Forecast

Almanac

Astronomy

Feb. 07, 2016 Rise Set
Actual Time
Civil Twilight
Nautical Twilight
Astronomical Twilight
Moon
Length of Visible Light
Length of Day
Tomorrow will be .
, % of the Moon is Illuminated

Today's Extremes

State Highs State Lows

Community

WunderPhotos

Upload Photos

1,891,323 photos uploaded!

WunderBlog® & News

Nearby

Air Quality

  Air Quality AQ Index Pollutant
Not available.

Snow Depth

Station Depth Elevation

Earthquake Activity

City Distance Mag. Time & Date
Minimum magnitude displayed is 2.5.

Coastal Water Temperatures

Place Temperature

Stations

Nearby Weather Stations

Station Location Temp. Windchill Dew Point Humidity Wind Precip. Elev Updated Type
                   

Watches & Warnings

There are currently no watches in effect.